Time;durP1;ratioP1;P1;durP2;ratioP2;P2;SDS_P1;SDS_P2;PMS_P1;PMS_P2;Temp;Humidity;BMP_temperature;BMP_pressure;BME280_temperature;BME280_humidity;BME280_pressure;Samples;Min_cycle;Max_cycle;Signal;HPM_P1;HPM_P2
2023/01/26 00:00:58;;;;;;;15.60;11.07;;;2.40;68.40;;;;;;5049776;28;20514;-59
2023/01/26 00:03:25;;;;;;;16.00;11.80;;;2.40;68.30;;;;;;5053496;28;20024;-59
2023/01/26 00:05:50;;;;;;;15.77;10.85;;;2.40;68.30;;;;;;5044018;28;20029;-59
2023/01/26 00:08:16;;;;;;;15.75;11.70;;;2.40;68.20;;;;;;5050839;28;20541;-59
2023/01/26 00:10:49;;;;;;;16.65;12.27;;;2.40;68.20;;;;;;5057776;28;21781;-59
2023/01/26 00:13:17;;;;;;;15.15;12.05;;;2.40;68.30;;;;;;5048060;28;20135;-59
2023/01/26 00:15:43;;;;;;;17.55;11.85;;;2.40;68.30;;;;;;5048404;28;20067;-59
2023/01/26 00:18:09;;;;;;;14.60;10.90;;;2.40;68.20;;;;;;5043331;28;20029;-59
2023/01/26 00:20:34;;;;;;;17.65;12.57;;;2.40;68.20;;;;;;5045326;28;20033;-59
2023/01/26 00:23:00;;;;;;;17.55;11.88;;;2.40;68.30;;;;;;5045793;28;20029;-48
2023/01/26 00:25:26;;;;;;;18.92;12.93;;;2.30;68.20;;;;;;5049879;28;20471;-47
2023/01/26 00:27:52;;;;;;;16.83;12.63;;;2.30;68.30;;;;;;5053859;28;20463;-59
2023/01/26 00:30:18;;;;;;;20.02;12.85;;;2.30;68.40;;;;;;5051942;28;20475;-58
2023/01/26 00:32:43;;;;;;;16.80;12.23;;;2.30;68.50;;;;;;5060918;28;20029;-59
2023/01/26 00:35:09;;;;;;;17.70;12.50;;;2.30;68.40;;;;;;5047363;28;20040;-58
2023/01/26 00:37:35;;;;;;;14.38;10.75;;;2.30;68.40;;;;;;5048016;28;20041;-57
2023/01/26 00:40:01;;;;;;;18.85;12.77;;;2.30;68.40;;;;;;5047779;28;20021;-57
2023/01/26 00:42:26;;;;;;;17.83;12.55;;;2.30;68.40;;;;;;5052177;28;20360;-58
2023/01/26 00:44:52;;;;;;;20.27;12.70;;;2.20;68.40;;;;;;5045326;28;20125;-61
2023/01/26 00:47:18;;;;;;;19.60;13.05;;;2.30;68.50;;;;;;5050595;28;20554;-52
2023/01/26 00:49:44;;;;;;;20.48;12.95;;;2.20;68.50;;;;;;5048413;28;20033;-49
2023/01/26 00:52:11;;;;;;;18.33;12.20;;;2.20;68.50;;;;;;5047680;28;20386;-51
2023/01/26 00:54:37;;;;;;;20.05;12.63;;;2.20;68.50;;;;;;5052922;28;20140;-54
2023/01/26 00:57:03;;;;;;;18.80;12.65;;;2.20;68.50;;;;;;5051956;28;20116;-59
2023/01/26 00:59:31;;;;;;;17.88;11.90;;;2.20;68.60;;;;;;5047437;28;20418;-58
2023/01/26 01:04:29;;;;;;;17.70;12.60;;;2.30;68.50;;;;;;5010018;28;20083;-53
2023/01/26 01:06:56;;;;;;;14.43;11.52;;;2.20;68.50;;;;;;5009289;28;20038;-57
2023/01/26 01:09:22;;;;;;;17.75;11.98;;;2.20;68.40;;;;;;5010992;28;20034;-57
2023/01/26 01:11:48;;;;;;;16.42;11.13;;;2.20;68.40;;;;;;5008123;28;20072;-54
2023/01/26 01:14:14;;;;;;;16.50;12.00;;;2.20;68.50;;;;;;5007234;28;20483;-61
2023/01/26 01:16:40;;;;;;;18.80;12.63;;;2.30;68.60;;;;;;5010516;28;20033;-60
2023/01/26 01:19:07;;;;;;;14.40;11.55;;;2.20;68.50;;;;;;5009397;28;20060;-58
2023/01/26 01:21:33;;;;;;;16.55;11.23;;;2.20;68.40;;;;;;5009151;28;20041;-58
2023/01/26 01:23:59;;;;;;;17.90;12.45;;;2.20;68.30;;;;;;5008698;28;20096;-59
2023/01/26 01:26:25;;;;;;;19.75;12.63;;;2.20;68.40;;;;;;5009591;28;20130;-60
2023/01/26 01:28:56;;;;;;;22.33;13.52;;;2.10;68.50;;;;;;5011277;28;20117;-61
2023/01/26 01:31:23;;;;;;;19.48;13.75;;;2.10;68.50;;;;;;5010606;28;20049;-60
2023/01/26 01:33:50;;;;;;;17.83;11.95;;;2.10;68.40;;;;;;5010060;28;20034;-59
2023/01/26 01:36:16;;;;;;;20.33;12.60;;;2.10;68.60;;;;;;5010793;28;20109;-60
2023/01/26 01:38:43;;;;;;;17.55;12.25;;;2.20;68.70;;;;;;5009024;28;20229;-51
2023/01/26 01:41:10;;;;;;;17.80;12.73;;;2.10;68.60;;;;;;5016229;28;20476;-52
2023/01/26 01:43:36;;;;;;;17.25;11.55;;;2.10;68.60;;;;;;5010085;28;20128;-57
2023/01/26 01:46:29;;;;;;;15.50;11.13;;;2.10;68.60;;;;;;5012302;28;20061;-58
2023/01/26 01:48:54;;;;;;;17.60;11.38;;;2.10;68.70;;;;;;5003301;28;20034;-50
2023/01/26 01:51:34;;;;;;;22.25;13.98;;;2.10;68.70;;;;;;4999627;28;20084;-51
2023/01/26 01:54:04;;;;;;;17.60;12.38;;;2.10;68.70;;;;;;5001038;28;20515;-62
2023/01/26 01:56:32;;;;;;;17.83;12.20;;;2.10;68.60;;;;;;5009648;28;20041;-58
2023/01/26 01:59:00;;;;;;;22.25;11.82;;;2.10;68.60;;;;;;5006803;28;20413;-62
2023/01/26 02:01:26;;;;;;;20.27;13.00;;;2.10;68.60;;;;;;5002237;28;20076;-60
2023/01/26 02:03:58;;;;;;;17.10;11.77;;;2.10;68.50;;;;;;5011429;28;20403;-60
2023/01/26 02:06:38;;;;;;;21.23;12.85;;;2.10;68.50;;;;;;4993182;28;20084;-59
2023/01/26 02:09:05;;;;;;;19.92;11.95;;;2.10;68.50;;;;;;4990601;28;20574;-51
2023/01/26 02:11:40;;;;;;;17.80;11.70;;;2.10;68.40;;;;;;4999741;28;20392;-52
2023/01/26 02:14:09;;;;;;;20.85;13.45;;;2.10;68.40;;;;;;4998940;28;20053;-60
2023/01/26 02:16:35;;;;;;;22.23;13.10;;;2.10;68.40;;;;;;5005296;28;20443;-61
2023/01/26 02:19:01;;;;;;;17.65;12.80;;;2.10;68.50;;;;;;5005899;28;20026;-60
2023/01/26 02:21:27;;;;;;;19.55;12.73;;;2.10;68.50;;;;;;5001566;28;20030;-60
2023/01/26 02:24:21;;;;;;;18.98;12.43;;;2.10;68.60;;;;;;5007554;28;20034;-62
2023/01/26 02:26:47;;;;;;;22.08;13.50;;;2.10;68.60;;;;;;5001536;28;20029;-59
2023/01/26 02:29:13;;;;;;;20.73;13.50;;;2.10;68.50;;;;;;5007962;28;20048;-60
2023/01/26 02:31:39;;;;;;;17.38;12.05;;;2.20;68.50;;;;;;5007654;28;20446;-60
2023/01/26 02:34:05;;;;;;;15.93;11.55;;;2.20;68.40;;;;;;5001222;28;20121;-60
2023/01/26 02:36:32;;;;;;;18.40;11.18;;;2.20;68.30;;;;;;5009438;28;20462;-58
2023/01/26 02:39:01;;;;;;;18.13;12.18;;;2.20;68.20;;;;;;5008759;28;20042;-59
2023/01/26 02:44:12;;;;;;;15.25;10.68;;;2.20;68.30;;;;;;5004032;28;20088;-54
2023/01/26 02:46:38;;;;;;;15.90;9.90;;;2.20;68.20;;;;;;5005529;28;20041;-49
2023/01/26 02:51:48;;;;;;;14.15;10.13;;;2.20;68.00;;;;;;5004905;28;20053;-59
2023/01/26 02:55:21;;;;;;;14.50;10.35;;;2.10;68.10;;;;;;5008658;28;20375;-60
2023/01/26 02:56:59;;;;;;;15.40;9.65;;;2.10;68.30;;;;;;5007850;28;20176;-62
2023/01/26 02:59:25;;;;;;;14.88;10.55;;;2.00;68.20;;;;;;5009253;28;20121;-61
2023/01/26 03:01:52;;;;;;;13.30;9.15;;;2.00;68.20;;;;;;5004525;28;20033;-59
2023/01/26 03:04:18;;;;;;;14.15;9.95;;;2.00;68.20;;;;;;5006619;28;20057;-59
2023/01/26 03:06:43;;;;;;;16.30;10.43;;;2.00;68.20;;;;;;4985534;28;20030;-59
2023/01/26 03:09:09;;;;;;;15.88;10.48;;;1.90;68.20;;;;;;5008806;28;20057;-56
2023/01/26 03:11:40;;;;;;;15.65;10.80;;;2.00;68.40;;;;;;5008135;28;20034;-58
2023/01/26 03:14:15;;;;;;;13.85;8.80;;;2.00;68.60;;;;;;5007773;28;20517;-59
2023/01/26 03:16:41;;;;;;;14.05;9.77;;;2.10;68.30;;;;;;5009567;28;20484;-59
2023/01/26 03:27:25;;;;;;;14.65;9.88;;;2.00;68.00;;;;;;5022496;28;20049;-60
2023/01/26 03:29:51;;;;;;;13.77;10.27;;;2.00;68.10;;;;;;5025802;28;20048;-59
2023/01/26 03:32:17;;;;;;;13.27;9.55;;;2.00;68.10;;;;;;5030085;28;20029;-59
2023/01/26 03:34:43;;;;;;;16.73;10.70;;;2.00;68.10;;;;;;5025615;28;20029;-60
2023/01/26 03:37:09;;;;;;;14.63;9.85;;;2.00;68.30;;;;;;5023258;28;20360;-59
2023/01/26 03:56:18;;;;;;;12.00;9.68;;;2.00;68.30;;;;;;5029239;28;20529;-60
2023/01/26 03:58:52;;;;;;;14.48;10.32;;;2.00;68.30;;;;;;5025128;28;20036;-59
2023/01/26 04:01:20;;;;;;;14.02;10.43;;;2.00;68.20;;;;;;5028475;28;20037;-60
2023/01/26 04:09:21;;;;;;;17.70;10.68;;;2.10;68.40;;;;;;5027567;28;20621;-50
2023/01/26 04:11:47;;;;;;;13.85;10.27;;;2.20;68.40;;;;;;5029585;28;20063;-48
2023/01/26 04:22:29;;;;;;;12.88;9.57;;;2.40;67.90;;;;;;5025277;28;20064;-59
2023/01/26 04:24:56;;;;;;;15.65;10.93;;;2.40;67.90;;;;;;5024355;28;20029;-60
2023/01/26 04:27:22;;;;;;;16.75;11.63;;;2.40;67.70;;;;;;5028729;28;20044;-60
2023/01/26 04:29:48;;;;;;;18.75;12.45;;;2.40;67.70;;;;;;5028714;28;20033;-58
2023/01/26 04:32:13;;;;;;;15.80;10.60;;;2.40;67.50;;;;;;5025482;28;20037;-57
2023/01/26 04:34:39;;;;;;;16.70;10.90;;;2.40;67.50;;;;;;5028234;28;20025;-57
2023/01/26 04:37:05;;;;;;;14.45;10.20;;;2.30;67.60;;;;;;5031376;28;20037;-57
2023/01/26 04:39:30;;;;;;;14.13;10.32;;;2.30;67.70;;;;;;5031493;28;20120;-57
2023/01/26 04:41:56;;;;;;;18.52;10.77;;;2.30;67.80;;;;;;5032387;28;20357;-56
2023/01/26 04:44:22;;;;;;;13.32;9.48;;;2.30;68.00;;;;;;5026331;28;20034;-58
2023/01/26 04:46:47;;;;;;;17.55;10.20;;;2.30;67.90;;;;;;5033039;28;20120;-58
2023/01/26 04:49:13;;;;;;;12.93;9.15;;;2.30;67.80;;;;;;5031610;28;20128;-61
2023/01/26 04:51:39;;;;;;;16.17;10.77;;;2.30;67.70;;;;;;5030396;28;20112;-60
2023/01/26 04:54:05;;;;;;;14.77;10.73;;;2.30;67.70;;;;;;5031884;28;20037;-49
2023/01/26 04:56:33;;;;;;;16.63;11.43;;;2.30;67.90;;;;;;5026552;28;20147;-52
2023/01/26 04:59:01;;;;;;;20.00;13.32;;;2.30;67.90;;;;;;5031078;28;20055;-62
2023/01/26 05:01:28;;;;;;;21.75;13.48;;;2.20;67.80;;;;;;5031417;28;20029;-59
2023/01/26 05:03:53;;;;;;;20.48;12.77;;;2.20;67.90;;;;;;5027233;28;20425;-58
2023/01/26 05:06:19;;;;;;;19.42;12.13;;;2.20;67.90;;;;;;5026725;28;20136;-59
2023/01/26 05:08:45;;;;;;;22.67;13.38;;;2.20;67.90;;;;;;5023997;28;20072;-58
2023/01/26 05:11:11;;;;;;;19.13;12.05;;;2.20;67.80;;;;;;5030778;28;20053;-59
2023/01/26 05:13:37;;;;;;;18.42;11.68;;;2.20;67.90;;;;;;5025484;28;20029;-58
2023/01/26 05:16:04;;;;;;;22.02;13.30;;;2.20;67.90;;;;;;5025903;28;20120;-63
2023/01/26 05:18:29;;;;;;;19.70;11.93;;;2.10;68.00;;;;;;5028106;28;20430;-62
2023/01/26 05:20:55;;;;;;;17.48;11.57;;;2.10;68.10;;;;;;5029961;28;20060;-59
2023/01/26 05:23:21;;;;;;;20.42;12.68;;;2.20;68.20;;;;;;5029733;28;20033;-58
2023/01/26 05:25:47;;;;;;;23.40;13.23;;;2.20;68.20;;;;;;5031481;28;20119;-52
2023/01/26 05:28:13;;;;;;;19.80;12.55;;;2.20;68.20;;;;;;5032474;28;20120;-50
2023/01/26 05:30:38;;;;;;;24.67;16.80;;;2.40;68.10;;;;;;5030858;28;20053;-63
2023/01/26 05:33:06;;;;;;;25.65;16.50;;;2.40;67.90;;;;;;5031677;28;20033;-64
2023/01/26 05:35:32;;;;;;;27.80;16.75;;;2.50;67.90;;;;;;5029582;28;20065;-62
2023/01/26 05:37:58;;;;;;;22.02;13.93;;;2.60;67.40;;;;;;5030854;28;20033;-62
2023/01/26 05:40:24;;;;;;;17.67;11.52;;;2.60;67.30;;;;;;5027501;28;20463;-63
2023/01/26 05:42:51;;;;;;;18.58;11.93;;;2.60;67.10;;;;;;5027977;28;20025;-63
2023/01/26 05:45:17;;;;;;;18.40;11.95;;;2.70;67.10;;;;;;5031188;28;20025;-61
2023/01/26 05:47:43;;;;;;;19.83;13.18;;;2.70;67.20;;;;;;5024138;28;20041;-60
2023/01/26 05:50:11;;;;;;;27.63;15.60;;;2.70;67.20;;;;;;5029685;28;20053;-62
2023/01/26 05:52:37;;;;;;;29.67;17.50;;;2.80;67.00;;;;;;5030621;28;20033;-58
2023/01/26 05:55:05;;;;;;;28.92;16.27;;;2.80;66.80;;;;;;5030758;28;20025;-53
2023/01/26 05:57:30;;;;;;;31.67;16.85;;;2.80;66.70;;;;;;5030093;28;20095;-56
2023/01/26 05:59:56;;;;;;;36.30;19.48;;;2.80;66.80;;;;;;5028266;28;20021;-52
2023/01/26 06:02:22;;;;;;;34.88;20.23;;;2.80;66.90;;;;;;5023177;28;20034;-49
2023/01/26 06:04:48;;;;;;;34.97;19.00;;;2.80;67.00;;;;;;5027592;28;20038;-53
2023/01/26 06:07:14;;;;;;;35.20;21.00;;;2.80;66.90;;;;;;5027994;28;20052;-56
2023/01/26 06:09:40;;;;;;;36.17;20.58;;;2.90;66.90;;;;;;5030541;28;20061;-58
2023/01/26 06:12:11;;;;;;;35.55;19.90;;;2.90;66.80;;;;;;5030116;28;20467;-54
2023/01/26 06:14:37;;;;;;;;;;;3.00;66.60;;;;;;5030358;28;20029;-60
2023/01/26 06:17:03;;;;;;;37.90;19.95;;;2.90;66.60;;;;;;5025147;28;20379;-61
2023/01/26 06:19:28;;;;;;;32.65;17.90;;;2.90;66.80;;;;;;5025664;28;20633;-61
2023/01/26 06:21:54;;;;;;;28.60;16.42;;;2.90;66.60;;;;;;5026956;28;20042;-61
2023/01/26 06:24:19;;;;;;;30.92;16.02;;;3.00;66.50;;;;;;5029197;28;20057;-60
2023/01/26 06:26:48;;;;;;;26.02;16.27;;;3.00;66.30;;;;;;5026983;28;20104;-60
2023/01/26 06:29:14;;;;;;;28.23;15.48;;;3.00;66.30;;;;;;5031295;28;20025;-60
2023/01/26 06:31:40;;;;;;;35.63;18.70;;;3.00;66.30;;;;;;5021059;28;20047;-61
2023/01/26 06:34:06;;;;;;;32.97;19.25;;;3.00;66.20;;;;;;5027540;28;20111;-62
2023/01/26 06:36:32;;;;;;;27.88;17.48;;;3.00;66.20;;;;;;5028087;28;20041;-61
2023/01/26 06:38:58;;;;;;;44.13;22.25;;;3.00;66.20;;;;;;5026177;28;20037;-62
2023/01/26 06:41:23;;;;;;;55.33;25.92;;;3.10;66.20;;;;;;5018369;28;20470;-61
2023/01/26 06:43:49;;;;;;;47.33;24.80;;;3.10;66.20;;;;;;5019321;28;20029;-60
2023/01/26 06:46:15;;;;;;;55.92;26.42;;;3.10;66.10;;;;;;5025050;28;20037;-62
2023/01/26 06:48:41;;;;;;;43.58;25.00;;;3.10;66.00;;;;;;5026916;28;20029;-61
2023/01/26 06:51:19;;;;;;;58.38;28.13;;;3.10;66.00;;;;;;5020759;28;20033;-61
2023/01/26 06:53:56;;;;;;;49.38;27.88;;;3.20;66.00;;;;;;5023372;28;20041;-61
2023/01/26 06:56:22;;;;;;;48.70;25.23;;;3.10;66.00;;;;;;5015626;28;20026;-62
2023/01/26 06:58:48;;;;;;;55.13;26.13;;;3.10;65.80;;;;;;5018817;28;20415;-60
2023/01/26 07:01:19;;;;;;;52.10;25.55;;;3.20;65.80;;;;;;5011456;28;20410;-62
2023/01/26 07:03:47;;;;;;;55.65;26.73;;;3.10;65.50;;;;;;5021636;28;20037;-62
2023/01/26 07:06:12;;;;;;;47.63;26.17;;;3.10;65.70;;;;;;5017557;28;20045;-63
2023/01/26 07:08:38;;;;;;;45.70;23.40;;;3.00;65.80;;;;;;5018382;28;20479;-62
2023/01/26 07:11:05;;;;;;;41.42;22.75;;;3.00;65.90;;;;;;5015160;28;20519;-61
2023/01/26 07:13:30;;;;;;;44.72;22.15;;;3.00;65.90;;;;;;5019817;28;20152;-60
2023/01/26 07:16:00;;;;;;;35.10;20.10;;;2.90;66.10;;;;;;5019001;28;20043;-61
2023/01/26 07:18:26;;;;;;;43.92;23.30;;;2.90;65.90;;;;;;5020628;28;20045;-61
2023/01/26 07:20:51;;;;;;;39.65;21.05;;;2.90;66.00;;;;;;5012600;28;20053;-60
2023/01/26 07:23:17;;;;;;;56.67;28.52;;;2.90;66.20;;;;;;5016879;28;20053;-60
2023/01/26 07:25:43;;;;;;;69.03;32.80;;;2.90;66.30;;;;;;5013904;28;20523;-61
2023/01/26 07:28:09;;;;;;;74.55;34.28;;;2.90;66.40;;;;;;5007268;28;20029;-61
2023/01/26 07:30:35;;;;;;;71.68;33.85;;;2.90;66.40;;;;;;5010261;28;20033;-61
2023/01/26 07:33:01;;;;;;;61.85;29.08;;;2.90;66.60;;;;;;5015111;28;20045;-61
2023/01/26 07:35:28;;;;;;;61.55;27.25;;;2.90;66.60;;;;;;5013156;28;20456;-52
2023/01/26 07:37:56;;;;;;;58.78;29.08;;;2.90;66.50;;;;;;5011646;28;20036;-50
2023/01/26 07:40:22;;;;;;;63.45;27.50;;;2.90;66.50;;;;;;5013043;28;20077;-59
2023/01/26 07:42:48;;;;;;;50.88;26.30;;;2.80;66.60;;;;;;5011905;28;20739;-53
2023/01/26 07:45:16;;;;;;;35.78;20.48;;;2.80;66.60;;;;;;5019982;28;20029;-54
2023/01/26 07:47:43;;;;;;;32.75;19.25;;;2.80;66.90;;;;;;5014847;28;20160;-56
2023/01/26 07:50:10;;;;;;;58.88;26.98;;;2.80;67.30;;;;;;5015911;28;20040;-54
2023/01/26 07:52:37;;;;;;;61.67;30.45;;;2.90;67.30;;;;;;5015911;28;20095;-51
2023/01/26 07:55:03;;;;;;;68.22;32.35;;;2.90;67.10;;;;;;5015792;28;20034;-58
2023/01/26 07:57:28;;;;;;;76.25;33.63;;;2.90;67.20;;;;;;5013875;28;20049;-59
2023/01/26 07:59:54;;;;;;;70.95;33.60;;;2.90;67.30;;;;;;5009539;28;21019;-53
2023/01/26 08:02:19;;;;;;;69.18;31.70;;;2.90;67.30;;;;;;5007016;28;20029;-56
2023/01/26 08:04:45;;;;;;;65.90;31.23;;;2.90;67.40;;;;;;5010544;28;20026;-65
2023/01/26 08:07:11;;;;;;;61.97;30.42;;;3.00;67.40;;;;;;5023440;28;20045;-62
2023/01/26 08:09:37;;;;;;;61.60;29.85;;;3.00;67.40;;;;;;5006135;28;20037;-59
2023/01/26 08:12:03;;;;;;;65.20;28.98;;;3.00;67.20;;;;;;5007262;28;20034;-60
2023/01/26 08:14:28;;;;;;;68.20;29.92;;;3.00;67.30;;;;;;5007344;28;20692;-60
2023/01/26 08:16:54;;;;;;;53.70;25.35;;;3.00;67.20;;;;;;5003482;28;20156;-59
2023/01/26 08:19:19;;;;;;;55.10;29.55;;;3.00;67.10;;;;;;5005830;28;20029;-60
2023/01/26 08:21:45;;;;;;;62.33;29.13;;;3.00;67.30;;;;;;4986756;28;20054;-59
2023/01/26 08:24:11;;;;;;;57.78;26.65;;;3.00;67.30;;;;;;4995681;28;20030;-60
2023/01/26 08:26:37;;;;;;;61.65;27.38;;;3.00;67.30;;;;;;5005662;28;20026;-60
2023/01/26 08:29:03;;;;;;;49.58;24.63;;;3.00;67.20;;;;;;5004782;28;20050;-60
2023/01/26 08:31:29;;;;;;;47.03;23.73;;;2.90;67.20;;;;;;5003652;28;20033;-61
2023/01/26 08:33:55;;;;;;;46.10;23.60;;;2.90;67.30;;;;;;5001301;28;20042;-59
2023/01/26 08:36:21;;;;;;;45.53;23.77;;;3.00;67.50;;;;;;5008846;28;20072;-60
2023/01/26 08:38:47;;;;;;;48.70;26.23;;;3.00;67.60;;;;;;4992903;28;20044;-61
2023/01/26 08:41:13;;;;;;;58.38;25.08;;;3.00;67.60;;;;;;4989768;28;20038;-61
2023/01/26 08:43:39;;;;;;;47.00;25.92;;;3.10;67.60;;;;;;4998799;28;20722;-60
2023/01/26 08:46:05;;;;;;;42.83;24.88;;;3.20;67.60;;;;;;4999496;28;20029;-59
2023/01/26 08:48:31;;;;;;;42.10;24.42;;;3.20;67.50;;;;;;5002924;28;20123;-60
2023/01/26 08:50:59;;;;;;;48.17;23.92;;;3.30;67.40;;;;;;5000293;28;20824;-61
2023/01/26 08:53:25;;;;;;;40.75;22.20;;;3.40;67.20;;;;;;4997680;28;20706;-60
2023/01/26 08:55:51;;;;;;;45.90;24.02;;;3.40;66.90;;;;;;5000826;28;20360;-61
2023/01/26 08:58:19;;;;;;;37.78;22.08;;;3.40;66.70;;;;;;4998939;28;20037;-60
2023/01/26 09:00:45;;;;;;;36.45;20.15;;;3.30;66.80;;;;;;4987617;28;20130;-59
2023/01/26 09:03:11;;;;;;;33.50;19.90;;;3.30;66.90;;;;;;4984420;28;20133;-60
2023/01/26 09:05:38;;;;;;;37.58;19.83;;;3.30;66.90;;;;;;4993177;28;22629;-60
2023/01/26 09:08:05;;;;;;;32.17;18.70;;;3.30;66.90;;;;;;4996075;28;20068;-60
2023/01/26 09:10:31;;;;;;;33.72;18.65;;;3.30;67.00;;;;;;4998673;28;20037;-61
2023/01/26 09:12:58;;;;;;;38.20;21.42;;;3.40;67.10;;;;;;5003738;28;20179;-61
2023/01/26 09:15:24;;;;;;;38.17;19.90;;;3.50;67.20;;;;;;4999136;28;20957;-63
2023/01/26 09:17:50;;;;;;;39.90;21.75;;;3.50;66.90;;;;;;4994833;28;20034;-61
2023/01/26 09:20:16;;;;;;;39.75;21.08;;;3.60;66.80;;;;;;5005374;28;20061;-57
2023/01/26 09:22:42;;;;;;;40.53;22.48;;;3.60;66.50;;;;;;5006094;28;20054;-56
2023/01/26 09:25:09;;;;;;;40.85;21.90;;;3.60;66.40;;;;;;5000953;28;20033;-56
2023/01/26 09:27:35;;;;;;;34.05;20.30;;;3.60;66.90;;;;;;4991455;28;20041;-57
2023/01/26 09:30:02;;;;;;;43.28;21.88;;;3.50;66.20;;;;;;4991756;28;20042;-52
2023/01/26 09:32:28;;;;;;;39.78;21.70;;;3.50;66.30;;;;;;4993185;28;20047;-53
2023/01/26 09:34:55;;;;;;;33.55;19.92;;;3.50;66.40;;;;;;5006254;28;20033;-51
2023/01/26 09:37:21;;;;;;;31.88;18.45;;;3.40;66.30;;;;;;4992335;28;20038;-59
2023/01/26 09:39:46;;;;;;;31.13;18.40;;;3.40;66.30;;;;;;5004078;28;20038;-55
2023/01/26 09:42:42;;;;;;;33.30;18.92;;;3.30;66.40;;;;;;5006332;28;20862;-58
2023/01/26 09:45:32;;;;;;;30.40;18.02;;;3.30;66.40;;;;;;5007459;28;20029;-52
2023/01/26 09:48:13;;;;;;;33.22;19.05;;;3.20;66.40;;;;;;5006675;28;20052;-58
2023/01/26 09:50:47;;;;;;;32.13;18.55;;;3.10;66.40;;;;;;5003431;28;20091;-55
2023/01/26 09:53:29;;;;;;;32.60;17.58;;;3.10;66.70;;;;;;5005566;28;20112;-59
2023/01/26 09:55:55;;;;;;;32.67;17.05;;;3.00;66.70;;;;;;4997004;28;20044;-58
2023/01/26 09:58:34;;;;;;;32.45;16.88;;;2.90;66.80;;;;;;5000464;28;20076;-56
2023/01/26 10:01:01;;;;;;;28.80;15.63;;;2.90;66.80;;;;;;4986038;28;20723;-59
2023/01/26 10:03:45;;;;;;;34.45;17.48;;;2.90;67.10;;;;;;4984235;28;20037;-54
2023/01/26 10:06:27;;;;;;;28.35;15.70;;;2.90;67.10;;;;;;4988505;28;20045;-60
2023/01/26 10:09:01;;;;;;;34.70;18.27;;;3.00;67.80;;;;;;4994152;28;20120;-57
2023/01/26 10:11:37;;;;;;;30.92;16.30;;;3.00;67.00;;;;;;4987216;28;20086;-56
2023/01/26 10:14:22;;;;;;;28.73;15.57;;;3.00;66.80;;;;;;4991597;28;20068;-57
2023/01/26 10:16:50;;;;;;;29.33;15.02;;;3.00;66.80;;;;;;5005096;28;20128;-53
2023/01/26 10:19:44;;;;;;;28.52;15.68;;;3.00;66.80;;;;;;5004504;28;20880;-62
2023/01/26 10:22:39;;;;;;;25.63;15.18;;;2.90;66.60;;;;;;4985064;28;20085;-61
2023/01/26 10:25:49;;;;;;;25.65;15.05;;;2.90;66.70;;;;;;4993311;28;20644;-62
2023/01/26 10:28:18;;;;;;;26.33;14.18;;;2.90;66.70;;;;;;4932039;28;20810;-60
2023/01/26 10:30:46;;;;;;;21.98;14.18;;;2.80;66.90;;;;;;4993059;28;20739;-62
2023/01/26 10:33:19;;;;;;;24.92;13.98;;;2.80;67.00;;;;;;4996842;28;21218;-62
2023/01/26 10:35:45;;;;;;;26.77;14.93;;;2.80;67.10;;;;;;4993012;28;20033;-59
2023/01/26 10:38:46;;;;;;;22.20;14.10;;;2.90;67.30;;;;;;5004982;28;20044;-59
2023/01/26 10:41:18;;;;;;;20.17;12.45;;;2.90;67.30;;;;;;4919808;28;21654;-58
2023/01/26 10:43:53;;;;;;;22.20;13.73;;;2.90;67.20;;;;;;4980756;28;20130;-62
2023/01/26 10:46:36;;;;;;;24.80;14.15;;;2.80;67.30;;;;;;4999878;28;20083;-61
2023/01/26 10:49:23;;;;;;;25.23;13.82;;;2.80;67.30;;;;;;4995516;28;20036;-60
2023/01/26 10:52:05;;;;;;;22.15;13.48;;;2.80;67.10;;;;;;4995457;28;20037;-61
2023/01/26 10:54:33;;;;;;;22.80;14.18;;;2.70;67.10;;;;;;4994013;28;20932;-59
2023/01/26 10:57:01;;;;;;;26.75;14.40;;;2.60;67.30;;;;;;5003583;28;20047;-60
2023/01/26 10:59:38;;;;;;;28.83;15.32;;;2.60;67.50;;;;;;4996629;28;20041;-59
2023/01/26 11:02:10;;;;;;;24.60;15.18;;;2.50;67.40;;;;;;4999956;28;20033;-60
2023/01/26 11:04:37;;;;;;;22.73;13.63;;;2.40;67.70;;;;;;5000205;28;20042;-61
2023/01/26 11:07:25;;;;;;;20.48;13.60;;;2.40;67.90;;;;;;5001383;28;20129;-59
2023/01/26 11:09:52;;;;;;;22.92;14.70;;;2.30;67.80;;;;;;4994907;28;20032;-59
2023/01/26 11:12:18;;;;;;;25.63;13.68;;;2.30;68.10;;;;;;4989083;28;20064;-60
2023/01/26 11:15:05;;;;;;;22.10;13.10;;;2.30;68.10;;;;;;4993971;28;20056;-61
2023/01/26 11:17:42;;;;;;;23.42;13.13;;;2.30;68.30;;;;;;4997869;28;20045;-61
2023/01/26 11:20:34;;;;;;;22.80;14.00;;;2.40;68.30;;;;;;5001331;28;20064;-60
2023/01/26 11:23:24;;;;;;;18.55;11.85;;;2.30;68.10;;;;;;4966080;28;20053;-61
2023/01/26 11:26:22;;;;;;;21.95;12.68;;;2.30;68.30;;;;;;4988447;28;20087;-63
2023/01/26 11:28:48;;;;;;;19.73;13.13;;;2.30;68.50;;;;;;4964320;28;20033;-59
2023/01/26 11:31:45;;;;;;;18.67;12.32;;;2.20;68.80;;;;;;4989514;28;20041;-62
2023/01/26 11:34:37;;;;;;;21.27;13.70;;;2.10;69.10;;;;;;4994940;28;20041;-61
2023/01/26 11:37:41;;;;;;;20.17;13.07;;;2.10;69.30;;;;;;4999740;28;20264;-61
2023/01/26 11:40:30;;;;;;;18.13;12.00;;;2.10;69.30;;;;;;5003005;28;20382;-61
2023/01/26 11:43:17;;;;;;;19.05;12.82;;;2.10;69.60;;;;;;4999862;28;20030;-60
2023/01/26 11:46:10;;;;;;;19.42;12.90;;;2.10;69.80;;;;;;5004242;28;20104;-62
2023/01/26 11:49:00;;;;;;;18.45;11.98;;;2.10;69.80;;;;;;5000886;28;20115;-63
2023/01/26 11:51:57;;;;;;;20.45;12.55;;;2.00;69.70;;;;;;5011544;28;20098;-61
2023/01/26 11:54:50;;;;;;;22.88;12.88;;;2.10;70.00;;;;;;5006376;28;20030;-56
2023/01/26 11:57:48;;;;;;;22.35;14.00;;;2.00;70.10;;;;;;5005818;28;20037;-57
2023/01/26 12:00:24;;;;;;;17.30;11.25;;;2.00;70.10;;;;;;4991457;28;20029;-58
2023/01/26 12:03:21;;;;;;;17.30;12.10;;;1.90;70.10;;;;;;5004451;28;20037;-53
2023/01/26 12:05:54;;;;;;;19.73;12.20;;;1.90;70.40;;;;;;4998306;28;20042;-53
2023/01/26 12:08:37;;;;;;;19.40;12.60;;;1.90;70.40;;;;;;4992991;28;20034;-59
2023/01/26 12:11:24;;;;;;;18.42;11.77;;;1.90;70.50;;;;;;5003714;28;20025;-61
2023/01/26 12:13:58;;;;;;;21.27;12.63;;;1.90;70.70;;;;;;5007042;28;20072;-62
2023/01/26 12:16:59;;;;;;;21.80;12.45;;;1.90;70.70;;;;;;4993847;28;20959;-61
2023/01/26 12:19:34;;;;;;;18.20;12.18;;;1.80;70.70;;;;;;4993530;28;20124;-62
2023/01/26 12:22:07;;;;;;;19.40;12.48;;;1.90;70.90;;;;;;4977723;28;20049;-62
2023/01/26 12:24:50;;;;;;;17.63;11.80;;;1.80;70.90;;;;;;4999779;28;20328;-63
2023/01/26 12:27:34;;;;;;;22.88;12.80;;;1.80;71.00;;;;;;4994482;28;20041;-63
2023/01/26 12:30:18;;;;;;;15.95;10.98;;;1.80;71.00;;;;;;5004284;28;20037;-63
2023/01/26 12:32:44;;;;;;;21.70;13.60;;;1.80;70.90;;;;;;4980205;28;20048;-62
2023/01/26 12:35:11;;;;;;;18.67;12.90;;;1.80;70.90;;;;;;4988037;28;20065;-60
2023/01/26 12:37:51;;;;;;;19.38;12.73;;;1.80;71.00;;;;;;4982679;28;20479;-62
2023/01/26 12:40:34;;;;;;;18.98;12.48;;;1.70;71.10;;;;;;4995955;28;20063;-63
2023/01/26 12:43:24;;;;;;;20.80;12.93;;;1.70;71.00;;;;;;4998033;28;20989;-64
2023/01/26 12:45:55;;;;;;;16.40;11.95;;;1.60;71.00;;;;;;5005874;28;20036;-61
2023/01/26 12:48:37;;;;;;;15.80;10.87;;;1.60;71.20;;;;;;5001490;28;20040;-62
2023/01/26 12:51:23;;;;;;;18.73;12.18;;;1.50;71.40;;;;;;4982830;28;20034;-61
2023/01/26 12:53:59;;;;;;;15.45;11.15;;;1.50;71.50;;;;;;4989862;28;20037;-62
2023/01/26 12:56:50;;;;;;;20.27;12.27;;;1.50;71.60;;;;;;4987806;28;20044;-61
2023/01/26 12:59:26;;;;;;;17.27;11.73;;;1.50;71.90;;;;;;4995086;28;20173;-61
2023/01/26 13:01:52;;;;;;;18.40;11.77;;;1.40;71.80;;;;;;4990795;28;20044;-62
2023/01/26 13:04:18;;;;;;;17.05;11.85;;;1.40;72.10;;;;;;5000697;28;20065;-62
2023/01/26 13:06:43;;;;;;;21.67;13.65;;;1.40;72.10;;;;;;5001064;28;20097;-63
2023/01/26 13:09:21;;;;;;;17.00;11.55;;;1.50;72.10;;;;;;4984419;28;20460;-63
2023/01/26 13:11:50;;;;;;;19.10;11.98;;;1.40;72.00;;;;;;4999492;28;20153;-61
2023/01/26 13:14:37;;;;;;;17.83;11.88;;;1.40;72.00;;;;;;5002469;28;20037;-60
2023/01/26 13:17:15;;;;;;;19.42;12.35;;;1.50;71.90;;;;;;5004326;28;20045;-64
2023/01/26 13:19:41;;;;;;;18.95;11.55;;;1.50;72.10;;;;;;5002559;28;21704;-60
2023/01/26 13:22:24;;;;;;;18.60;12.65;;;1.40;72.00;;;;;;5008135;28;20180;-63
2023/01/26 13:24:55;;;;;;;18.33;12.38;;;1.40;72.00;;;;;;5005935;28;20033;-63
2023/01/26 13:27:39;;;;;;;18.10;12.15;;;1.40;72.10;;;;;;4996147;28;20044;-63
2023/01/26 13:30:23;;;;;;;16.75;11.90;;;1.30;72.10;;;;;;5002939;28;20443;-63
2023/01/26 13:32:49;;;;;;;18.77;11.88;;;1.30;72.30;;;;;;5002802;28;20962;-63
2023/01/26 13:35:21;;;;;;;18.70;11.90;;;1.30;72.30;;;;;;5004713;28;20033;-63
2023/01/26 13:38:14;;;;;;;18.73;12.10;;;1.20;72.40;;;;;;5011210;28;20061;-62
2023/01/26 13:40:46;;;;;;;17.98;12.68;;;1.20;72.60;;;;;;5004721;28;20040;-62
2023/01/26 13:43:29;;;;;;;18.65;12.07;;;1.20;72.70;;;;;;4996837;28;20093;-62